Sandestin, Florida
Current Conditions -  °F | °C
As of 10:53 AM on Saturday 25 Oct 2014 (Local Time) from KDTS Reporting Station
Clear Clear  
Wind Chill: 73°   Ceiling: Unl
Heat Index: 73°   Visibility: 10mi
Dew Point: 47°   Wind: 10mph
Humidity: 39%   Direction: 350°N
Pressure: 30.09"   Gusts: 17mph
Location:  30.3738°N, 86.3602°W
Report Text: KDTS 251553Z AUTO 35009G15KT 10SM CLR 23/08 A3009 RMK AO2 SLP189 T02280083 TSNO
Loading
Personal Weather Stations






























Interactive Weather Map New forecast layout! Learn more

10-Day Weather Forecast

Advertisements
Track Severe Weather on mobile